createdAt,value
2018-09-12T00:00:24.498Z,4.92
2018-09-12T00:02:55.503Z,6.50
2018-09-12T00:05:26.478Z,6.37
2018-09-12T00:07:57.577Z,6.00
2018-09-12T00:10:28.483Z,6.10
2018-09-12T00:12:59.506Z,6.47
2018-09-12T00:15:30.468Z,6.17
2018-09-12T00:18:01.465Z,5.33
2018-09-12T00:20:32.472Z,8.00
2018-09-12T00:23:03.508Z,6.53
2018-09-12T00:25:34.479Z,4.80
2018-09-12T00:28:05.478Z,7.83
2018-09-12T00:30:36.495Z,10.03
2018-09-12T00:33:07.545Z,7.67
2018-09-12T00:35:38.484Z,5.40
2018-09-12T00:38:09.501Z,7.58
2018-09-12T00:40:40.498Z,6.85
2018-09-12T00:43:11.512Z,7.25
2018-09-12T00:45:42.472Z,6.67
2018-09-12T00:48:13.624Z,7.10
2018-09-12T00:50:44.486Z,7.15
2018-09-12T00:53:15.499Z,6.05
2018-09-12T00:55:46.526Z,6.28
2018-09-12T00:58:17.489Z,6.35
2018-09-12T01:00:48.540Z,7.08
2018-09-12T01:03:19.499Z,8.40
2018-09-12T01:05:50.513Z,6.83
2018-09-12T01:08:21.522Z,6.50
2018-09-12T01:10:52.511Z,5.42
2018-09-12T01:13:23.515Z,12.18
2018-09-12T01:15:54.538Z,7.80
2018-09-12T01:18:25.508Z,7.55
2018-09-12T01:20:56.500Z,6.60
2018-09-12T01:23:27.501Z,8.98
2018-09-12T01:25:58.505Z,8.55
2018-09-12T01:28:29.505Z,6.17
2018-09-12T01:31:01.497Z,8.13
2018-09-12T01:33:32.518Z,7.35
2018-09-12T01:36:03.517Z,6.55
2018-09-12T01:38:34.516Z,6.17
2018-09-12T01:41:05.521Z,7.20
2018-09-12T01:43:36.550Z,6.42
2018-09-12T01:46:07.774Z,6.30
2018-09-12T01:48:38.590Z,12.90
2018-09-12T01:51:09.512Z,5.85
2018-09-12T01:53:40.518Z,9.63
2018-09-12T01:56:11.489Z,7.28
2018-09-12T01:58:42.501Z,6.30
2018-09-12T02:01:13.534Z,9.40
2018-09-12T02:03:44.504Z,7.83
2018-09-12T02:06:15.485Z,9.45
2018-09-12T02:08:46.533Z,8.40
2018-09-12T02:11:17.507Z,5.55
2018-09-12T02:13:48.530Z,7.90
2018-09-12T02:16:19.509Z,6.92
2018-09-12T02:18:50.510Z,7.85
2018-09-12T02:21:21.523Z,7.53
2018-09-12T02:23:52.509Z,6.40
2018-09-12T02:26:23.649Z,7.67
2018-09-12T02:28:54.615Z,7.70
2018-09-12T02:31:26.609Z,6.33
2018-09-12T02:33:57.516Z,8.28
2018-09-12T02:36:29.725Z,9.40
2018-09-12T02:39:01.397Z,8.58
2018-09-12T02:41:32.509Z,6.25
2018-09-12T02:44:03.525Z,6.53
2018-09-12T02:46:34.523Z,8.75
2018-09-12T02:49:05.556Z,8.33
2018-09-12T02:51:36.586Z,6.28
2018-09-12T02:54:07.508Z,6.80
2018-09-12T02:56:38.493Z,8.80
2018-09-12T02:59:09.526Z,10.30
2018-09-12T03:01:40.589Z,6.72
2018-09-12T03:04:11.502Z,9.30
2018-09-12T03:06:42.488Z,11.88
2018-09-12T03:09:13.508Z,10.70
2018-09-12T03:11:44.508Z,8.45
2018-09-12T03:14:16.023Z,9.35
2018-09-12T03:16:47.373Z,11.18
2018-09-12T03:19:18.767Z,13.35
2018-09-12T03:21:49.745Z,6.28
2018-09-12T03:24:20.650Z,9.10
2018-09-12T03:26:51.562Z,8.53
2018-09-12T03:29:22.550Z,9.78
2018-09-12T03:31:53.521Z,10.20
2018-09-12T03:34:24.544Z,8.48
2018-09-12T03:36:55.530Z,15.63
2018-09-12T03:39:26.525Z,7.78
2018-09-12T03:41:57.544Z,8.23
2018-09-12T03:44:28.518Z,9.65
2018-09-12T03:46:59.474Z,8.40
2018-09-12T03:49:30.528Z,12.50
2018-09-12T03:52:01.514Z,7.85
2018-09-12T03:54:32.538Z,8.93
2018-09-12T03:59:39.625Z,9.48
2018-09-12T04:02:10.500Z,11.00
2018-09-12T04:04:41.531Z,7.97
2018-09-12T04:07:12.604Z,11.30
2018-09-12T04:09:43.564Z,8.25
2018-09-12T04:12:14.494Z,9.28
2018-09-12T04:14:46.722Z,12.03
2018-09-12T04:17:17.557Z,6.80
2018-09-12T04:19:48.513Z,9.70
2018-09-12T04:22:19.465Z,10.23
2018-09-12T04:24:50.629Z,9.38
2018-09-12T04:27:21.499Z,8.33
2018-09-12T04:29:52.529Z,10.18
2018-09-12T04:32:23.588Z,11.78
2018-09-12T04:34:54.541Z,9.13
2018-09-12T04:37:25.498Z,8.40
2018-09-12T04:39:56.501Z,11.20
2018-09-12T04:42:27.485Z,9.33
2018-09-12T04:44:58.497Z,9.00
2018-09-12T04:47:29.485Z,9.23
2018-09-12T04:50:00.502Z,10.25
2018-09-12T04:52:31.537Z,11.83
2018-09-12T04:55:02.503Z,10.40
2018-09-12T04:58:21.531Z,10.80
2018-09-12T05:00:52.513Z,9.68
2018-09-12T05:03:23.500Z,10.93
2018-09-12T05:05:54.494Z,9.35
2018-09-12T05:08:25.506Z,10.03
2018-09-12T05:10:56.497Z,12.15
2018-09-12T05:13:28.473Z,11.12
2018-09-12T05:15:59.609Z,11.33
2018-09-12T05:18:31.760Z,9.63
2018-09-12T05:21:02.626Z,9.50
2018-09-12T05:23:33.542Z,13.72
2018-09-12T05:26:04.486Z,10.48
2018-09-12T05:28:35.567Z,10.40
2018-09-12T05:31:06.649Z,10.78
2018-09-12T05:33:37.647Z,9.15
2018-09-12T05:36:09.712Z,12.15
2018-09-12T05:38:40.609Z,12.53
2018-09-12T05:41:11.494Z,15.95
2018-09-12T05:43:42.498Z,9.98
2018-09-12T05:46:13.493Z,11.43
2018-09-12T05:48:45.229Z,11.35
2018-09-12T05:51:16.406Z,11.20
2018-09-12T05:53:47.563Z,13.95
2018-09-12T05:56:18.537Z,10.32
2018-09-12T05:58:49.775Z,11.33
2018-09-12T06:01:20.629Z,15.90
2018-09-12T06:03:51.531Z,13.00
2018-09-12T06:06:22.527Z,13.35
2018-09-12T06:08:53.487Z,16.73
2018-09-12T06:11:24.509Z,17.55
2018-09-12T06:13:55.500Z,14.20
2018-09-12T06:16:26.522Z,13.45
2018-09-12T06:18:57.742Z,14.23
2018-09-12T06:24:08.731Z,15.85
2018-09-12T06:26:39.565Z,14.47
2018-09-12T06:29:10.489Z,14.78
2018-09-12T06:31:41.617Z,23.85
2018-09-12T06:34:12.506Z,16.73
2018-09-12T06:36:43.525Z,13.90
2018-09-12T06:39:14.726Z,16.45
2018-09-12T06:41:45.579Z,32.13
2018-09-12T06:44:16.502Z,15.68
2018-09-12T06:46:48.200Z,21.85
2018-09-12T06:49:19.364Z,16.77
2018-09-12T06:51:50.435Z,16.05
2018-09-12T06:54:21.489Z,16.97
2018-09-12T06:59:38.525Z,16.80
2018-09-12T07:02:09.489Z,17.80
2018-09-12T07:04:40.469Z,19.85
2018-09-12T07:07:11.527Z,14.85
2018-09-12T07:09:42.535Z,11.10
2018-09-12T07:12:13.527Z,16.97
2018-09-12T07:14:44.525Z,14.40
2018-09-12T07:17:15.565Z,15.20
2018-09-12T07:19:46.509Z,10.72
2018-09-12T07:22:17.513Z,12.68
2018-09-12T07:24:48.560Z,16.82
2018-09-12T07:27:19.516Z,16.25
2018-09-12T07:29:50.498Z,12.03
2018-09-12T07:32:21.513Z,14.90
2018-09-12T07:34:52.518Z,13.28
2018-09-12T07:37:23.506Z,14.35
2018-09-12T07:39:54.541Z,10.95
2018-09-12T07:42:26.290Z,17.00
2018-09-12T07:44:57.401Z,17.42
2018-09-12T07:47:28.640Z,9.45
2018-09-12T07:49:59.769Z,7.87
2018-09-12T07:52:30.614Z,12.30
2018-09-12T07:55:01.928Z,7.25
2018-09-12T07:57:33.014Z,12.55
2018-09-12T08:00:04.362Z,11.05
2018-09-12T08:02:35.361Z,8.98
2018-09-12T08:05:06.442Z,10.45
2018-09-12T08:07:37.511Z,8.65
2018-09-12T08:10:08.506Z,8.30
2018-09-12T08:12:39.498Z,7.55
2018-09-12T08:15:10.562Z,7.12
2018-09-12T08:17:41.666Z,6.33
2018-09-12T08:20:12.554Z,8.55
2018-09-12T08:22:43.493Z,7.12
2018-09-12T08:25:14.520Z,8.38
2018-09-12T08:27:45.746Z,7.42
2018-09-12T08:30:16.605Z,9.05
2018-09-12T08:32:47.499Z,5.70
2018-09-12T08:35:19.390Z,8.25
2018-09-12T08:37:50.508Z,5.25
2018-09-12T08:40:21.508Z,8.05
2018-09-12T08:42:52.507Z,6.35
2018-09-12T08:45:23.451Z,6.58
2018-09-12T08:47:54.706Z,6.03
2018-09-12T08:50:25.911Z,12.93
2018-09-12T08:52:57.443Z,6.20
2018-09-12T08:55:28.589Z,7.47
2018-09-12T08:57:59.609Z,7.60
2018-09-12T09:00:34.606Z,5.60
2018-09-12T09:03:07.285Z,6.42
2018-09-12T09:05:38.515Z,9.23
2018-09-12T09:08:09.490Z,7.08
2018-09-12T09:10:40.581Z,5.50
2018-09-12T09:13:11.509Z,5.70
2018-09-12T09:15:42.494Z,6.00
2018-09-12T09:18:13.490Z,5.10
2018-09-12T09:20:44.576Z,3.65
2018-09-12T09:23:15.498Z,7.50
2018-09-12T09:25:46.478Z,5.05
2018-09-12T09:28:17.543Z,6.85
2018-09-12T09:30:48.493Z,4.55
2018-09-12T09:33:19.484Z,4.40
2018-09-12T09:35:50.564Z,4.75
2018-09-12T09:38:21.486Z,7.92
2018-09-12T09:40:52.594Z,4.78
2018-09-12T09:43:23.534Z,6.70
2018-09-12T09:45:54.517Z,7.10
2018-09-12T09:48:25.575Z,4.72
2018-09-12T09:50:56.538Z,6.75
2018-09-12T09:53:27.572Z,7.10
2018-09-12T09:55:58.505Z,6.80
2018-09-12T09:58:29.555Z,3.67
2018-09-12T10:01:05.745Z,6.75
2018-09-12T10:03:46.385Z,6.42
2018-09-12T10:06:25.266Z,7.00
2018-09-12T10:11:27.369Z,5.95
2018-09-12T10:13:58.398Z,5.65
2018-09-12T10:16:29.522Z,6.15
2018-09-12T10:19:00.605Z,4.45
2018-09-12T10:21:32.029Z,5.67
2018-09-12T10:24:03.382Z,6.35
2018-09-12T10:26:34.511Z,5.70
2018-09-12T10:29:05.518Z,6.75
2018-09-12T10:31:36.489Z,6.05
2018-09-12T10:34:07.603Z,4.97
2018-09-12T10:36:38.487Z,6.87
2018-09-12T10:39:13.228Z,5.97
2018-09-12T10:41:44.610Z,5.00
2018-09-12T10:44:15.716Z,4.55
2018-09-12T10:46:46.610Z,8.23
2018-09-12T10:49:17.537Z,4.67
2018-09-12T10:51:48.504Z,4.10
2018-09-12T10:54:19.545Z,6.20
2018-09-12T10:56:50.565Z,5.65
2018-09-12T10:59:21.533Z,7.17
2018-09-12T11:01:52.538Z,9.20
2018-09-12T11:04:23.626Z,4.28
2018-09-12T11:06:54.505Z,4.47
2018-09-12T11:09:25.499Z,4.55
2018-09-12T11:11:56.506Z,4.70
2018-09-12T11:14:27.517Z,6.08
2018-09-12T11:16:58.510Z,5.23
2018-09-12T11:19:29.515Z,7.03
2018-09-12T11:22:00.486Z,4.70
2018-09-12T11:24:31.519Z,5.37
2018-09-12T11:27:02.494Z,5.70
2018-09-12T11:29:33.461Z,3.55
2018-09-12T11:32:04.505Z,3.20
2018-09-12T11:34:35.611Z,4.47
2018-09-12T11:37:06.510Z,5.03
2018-09-12T11:39:37.546Z,5.27
2018-09-12T11:42:08.606Z,6.47
2018-09-12T11:44:39.510Z,5.63
2018-09-12T11:47:10.505Z,5.90
2018-09-12T11:49:44.330Z,9.80
2018-09-12T11:52:15.378Z,6.60
2018-09-12T11:54:46.498Z,8.07
2018-09-12T11:57:17.513Z,6.73
2018-09-12T11:59:48.473Z,6.83
2018-09-12T12:02:19.739Z,6.60
2018-09-12T12:04:50.564Z,6.37
2018-09-12T12:07:21.569Z,8.23
2018-09-12T12:09:52.522Z,5.30
2018-09-12T12:12:23.490Z,7.33
2018-09-12T12:14:54.521Z,6.97
2018-09-12T12:17:25.490Z,5.10
2018-09-12T12:19:56.492Z,6.53
2018-09-12T12:22:27.509Z,3.07
2018-09-12T12:24:58.549Z,9.30
2018-09-12T12:27:29.477Z,4.87
2018-09-12T12:30:00.515Z,4.70
2018-09-12T12:32:31.500Z,8.07
2018-09-12T12:35:02.550Z,4.00
2018-09-12T12:37:33.521Z,4.07
2018-09-12T12:40:04.555Z,3.47
2018-09-12T12:42:35.501Z,4.63
2018-09-12T12:45:06.550Z,4.00
2018-09-12T12:47:37.514Z,3.07
2018-09-12T12:50:08.785Z,4.63
2018-09-12T12:52:39.558Z,3.27
2018-09-12T12:55:10.511Z,6.87
2018-09-12T12:57:41.468Z,5.70
2018-09-12T13:00:12.506Z,3.97
2018-09-12T13:02:43.507Z,6.30
2018-09-12T13:05:14.526Z,3.43
2018-09-12T13:07:45.514Z,8.00
2018-09-12T13:10:16.520Z,5.23
2018-09-12T13:12:47.501Z,6.13
2018-09-12T13:15:18.539Z,3.30
2018-09-12T13:17:49.507Z,3.80
2018-09-12T13:20:20.505Z,5.13
2018-09-12T13:22:51.482Z,5.10
2018-09-12T13:25:22.514Z,5.07
2018-09-12T13:27:53.531Z,1.90
2018-09-12T13:30:24.517Z,4.20
2018-09-12T13:32:55.502Z,3.80
2018-09-12T13:35:26.529Z,3.50
2018-09-12T13:37:57.501Z,6.67
2018-09-12T13:40:28.514Z,3.90
2018-09-12T13:42:59.503Z,3.87
2018-09-12T13:45:30.586Z,3.10
2018-09-12T13:48:01.520Z,4.90
2018-09-12T13:50:32.522Z,3.70
2018-09-12T13:53:03.530Z,3.73
2018-09-12T13:55:34.542Z,5.77
2018-09-12T13:58:05.497Z,3.43
2018-09-12T14:00:36.497Z,5.77
2018-09-12T14:03:07.632Z,3.73
2018-09-12T14:05:38.493Z,4.03
2018-09-12T14:08:09.487Z,5.67
2018-09-12T14:10:41.934Z,3.73
2018-09-12T14:13:12.778Z,2.40
2018-09-12T14:15:43.594Z,7.97
2018-09-12T14:18:14.501Z,2.50
2018-09-12T14:20:45.498Z,3.37
2018-09-12T14:23:16.509Z,4.90
2018-09-12T14:25:47.555Z,2.83
2018-09-12T14:28:18.529Z,8.13
2018-09-12T14:30:49.538Z,3.80
2018-09-12T14:33:20.496Z,4.30
2018-09-12T14:35:51.538Z,3.63
2018-09-12T14:38:22.493Z,3.30
2018-09-12T14:40:53.582Z,4.77
2018-09-12T14:43:24.533Z,4.07
2018-09-12T14:45:55.549Z,6.50
2018-09-12T14:48:26.546Z,2.93
2018-09-12T14:50:57.522Z,5.63
2018-09-12T14:53:28.539Z,6.83
2018-09-12T14:55:59.541Z,4.27
2018-09-12T14:58:30.529Z,3.07
2018-09-12T15:01:01.550Z,4.43
2018-09-12T15:03:33.025Z,2.87
2018-09-12T15:06:04.308Z,1.87
2018-09-12T15:08:35.438Z,4.93
2018-09-12T15:11:06.574Z,2.20
2018-09-12T15:13:37.489Z,3.27
2018-09-12T15:16:08.574Z,2.60
2018-09-12T15:18:39.525Z,3.95
2018-09-12T15:21:10.529Z,5.60
2018-09-12T15:23:42.292Z,3.22
2018-09-12T15:26:13.399Z,5.85
2018-09-12T15:28:44.534Z,2.37
2018-09-12T15:31:15.535Z,4.12
2018-09-12T15:33:46.597Z,2.77
2018-09-12T15:36:17.525Z,2.70
2018-09-12T15:38:48.493Z,2.12
2018-09-12T15:41:19.556Z,2.30
2018-09-12T15:43:50.695Z,2.72
2018-09-12T15:46:21.582Z,2.45
2018-09-12T15:48:52.622Z,3.42
2018-09-12T15:51:23.562Z,18.02
2018-09-12T15:53:54.497Z,1.90
2018-09-12T15:56:25.531Z,1.77
2018-09-12T15:58:56.564Z,1.75
2018-09-12T16:01:27.529Z,2.95
2018-09-12T16:03:58.687Z,2.65
2018-09-12T16:06:29.642Z,2.85
2018-09-12T16:09:00.489Z,2.00
2018-09-12T16:11:31.537Z,4.10
2018-09-12T16:14:02.585Z,3.08
2018-09-12T16:16:33.587Z,3.10
2018-09-12T16:19:04.535Z,3.10
2018-09-12T16:21:36.369Z,3.10
2018-09-12T16:24:07.535Z,6.10
2018-09-12T16:26:38.553Z,3.25
2018-09-12T16:29:09.541Z,1.90
2018-09-12T16:31:40.538Z,5.10
2018-09-12T16:34:11.513Z,10.30
2018-09-12T16:36:42.529Z,17.32
2018-09-12T16:39:14.376Z,5.92
2018-09-12T16:41:45.510Z,2.20
2018-09-12T16:44:16.508Z,4.85
2018-09-12T16:46:47.522Z,3.95
2018-09-12T16:49:18.502Z,5.58
2018-09-12T16:51:49.580Z,3.37
2018-09-12T16:54:20.504Z,3.50
2018-09-12T16:56:51.608Z,2.55
2018-09-12T16:59:22.480Z,2.37
2018-09-12T17:01:54.742Z,2.45
2018-09-12T17:04:25.714Z,2.33
2018-09-12T17:06:57.352Z,2.70
2018-09-12T17:09:28.394Z,3.72
2018-09-12T17:11:59.711Z,3.50
2018-09-12T17:14:30.642Z,2.87
2018-09-12T17:17:01.566Z,2.87
2018-09-12T17:19:34.129Z,5.22
2018-09-12T17:22:05.375Z,11.10
2018-09-12T17:24:36.464Z,4.83
2018-09-12T17:27:07.507Z,4.35
2018-09-12T17:29:38.501Z,6.15
2018-09-12T17:32:09.513Z,5.50
2018-09-12T17:34:40.517Z,2.75
2018-09-12T17:37:11.550Z,4.45
2018-09-12T17:39:42.517Z,2.27
2018-09-12T17:42:13.778Z,4.12
2018-09-12T17:44:44.594Z,3.45
2018-09-12T17:47:15.582Z,3.60
2018-09-12T17:49:46.515Z,2.47
2018-09-12T17:52:18.286Z,3.60
2018-09-12T17:54:49.446Z,3.20
2018-09-12T17:57:20.538Z,4.53
2018-09-12T17:59:51.534Z,3.08
2018-09-12T18:02:22.489Z,6.90
2018-09-12T18:04:53.555Z,5.42
2018-09-12T18:07:24.469Z,3.40
2018-09-12T18:09:55.507Z,6.30
2018-09-12T18:12:26.527Z,4.50
2018-09-12T18:14:57.567Z,3.98
2018-09-12T18:17:28.556Z,2.87
2018-09-12T18:19:59.492Z,5.25
2018-09-12T18:22:30.509Z,4.47
2018-09-12T18:25:01.489Z,6.50
2018-09-12T18:27:32.577Z,4.85
2018-09-12T18:30:03.551Z,4.08
2018-09-12T18:32:34.515Z,7.70
2018-09-12T18:35:05.538Z,4.47
2018-09-12T18:37:36.514Z,2.80
2018-09-12T18:40:07.490Z,5.80
2018-09-12T18:42:38.482Z,6.55
2018-09-12T18:45:09.518Z,4.95
2018-09-12T18:47:40.477Z,7.12
2018-09-12T18:50:11.473Z,4.12
2018-09-12T18:52:42.433Z,4.58
2018-09-12T18:55:13.541Z,3.92
2018-09-12T18:57:44.639Z,5.47
2018-09-12T19:00:15.615Z,3.80
2018-09-12T19:02:46.755Z,5.10
2018-09-12T19:05:17.629Z,4.28
2018-09-12T19:07:48.538Z,6.20
2018-09-12T19:10:19.492Z,5.00
2018-09-12T19:12:50.835Z,6.72
2018-09-12T19:15:22.188Z,6.25
2018-09-12T19:17:53.389Z,4.12
2018-09-12T19:20:24.498Z,5.90
2018-09-12T19:22:55.537Z,2.77
2018-09-12T19:25:26.530Z,4.58
2018-09-12T19:27:57.510Z,3.17
2018-09-12T19:30:28.595Z,7.47
2018-09-12T19:32:59.646Z,3.30
2018-09-12T19:35:30.570Z,5.67
2018-09-12T19:38:01.534Z,3.83
2018-09-12T19:40:32.521Z,5.17
2018-09-12T19:43:03.514Z,7.33
2018-09-12T19:45:34.638Z,2.75
2018-09-12T19:48:05.599Z,5.67
2018-09-12T19:50:36.526Z,3.17
2018-09-12T19:53:07.594Z,4.70
2018-09-12T19:55:38.570Z,3.52
2018-09-12T19:58:09.587Z,8.83
2018-09-12T20:00:40.485Z,5.80
2018-09-12T20:03:11.535Z,7.70
2018-09-12T20:05:42.537Z,4.78
2018-09-12T20:08:13.478Z,6.12
2018-09-12T20:10:44.498Z,6.35
2018-09-12T20:13:15.498Z,7.67
2018-09-12T20:15:46.545Z,9.28
2018-09-12T20:18:17.579Z,7.40
2018-09-12T20:20:48.662Z,6.50
2018-09-12T20:23:19.690Z,8.50
2018-09-12T20:25:50.577Z,6.60
2018-09-12T20:28:21.551Z,8.68
2018-09-12T20:30:52.494Z,6.75
2018-09-12T20:33:24.001Z,15.78
2018-09-12T20:35:55.426Z,19.60
2018-09-12T20:38:26.509Z,14.53
2018-09-12T20:40:57.538Z,8.60
2018-09-12T20:43:28.531Z,12.90
2018-09-12T20:45:59.484Z,8.75
2018-09-12T20:48:30.522Z,12.40
2018-09-12T20:51:01.476Z,9.40
2018-09-12T20:53:32.492Z,12.50
2018-09-12T20:56:03.510Z,9.23
2018-09-12T20:58:34.499Z,15.72
2018-09-12T21:01:05.518Z,9.25
2018-09-12T21:03:36.490Z,18.95
2018-09-12T21:06:07.490Z,15.48
2018-09-12T21:08:38.552Z,11.35
2018-09-12T21:11:09.543Z,17.42
2018-09-12T21:13:40.497Z,12.50
2018-09-12T21:16:11.618Z,15.08
2018-09-12T21:18:42.572Z,11.97
2018-09-12T21:21:15.277Z,15.55
2018-09-12T21:23:46.371Z,12.20
2018-09-12T21:26:17.477Z,16.00
2018-09-12T21:28:48.515Z,11.80
2018-09-12T21:31:19.549Z,17.62
2018-09-12T21:33:50.501Z,16.48
2018-09-12T21:36:22.027Z,17.30
2018-09-12T21:38:53.592Z,12.13
2018-09-12T21:41:24.508Z,17.27
2018-09-12T21:43:55.502Z,13.38
2018-09-12T21:46:26.505Z,18.00
2018-09-12T21:48:57.488Z,13.38
2018-09-12T21:51:28.465Z,16.12
2018-09-12T21:53:59.509Z,12.60
2018-09-12T21:56:30.481Z,19.42
2018-09-12T21:59:01.521Z,13.40
2018-09-12T22:01:32.525Z,18.60
2018-09-12T22:04:03.489Z,16.60
2018-09-12T22:06:34.841Z,15.75
2018-09-12T22:09:09.464Z,16.75
2018-09-12T22:11:40.509Z,13.72
2018-09-12T22:14:11.481Z,16.77
2018-09-12T22:16:42.499Z,16.20
2018-09-12T22:19:13.476Z,18.52
2018-09-12T22:21:44.500Z,15.45
2018-09-12T22:24:15.489Z,17.42
2018-09-12T22:26:46.541Z,16.50
2018-09-12T22:29:17.480Z,17.42
2018-09-12T22:31:48.499Z,15.63
2018-09-12T22:34:19.489Z,16.57
2018-09-12T22:36:50.484Z,15.83
2018-09-12T22:39:21.530Z,15.45
2018-09-12T22:41:52.503Z,18.02
2018-09-12T22:44:23.481Z,17.17
2018-09-12T22:46:54.484Z,17.85
2018-09-12T22:49:25.500Z,17.35
2018-09-12T22:51:56.525Z,13.95
2018-09-12T22:54:27.533Z,13.20
2018-09-12T22:56:58.517Z,13.15
2018-09-12T22:59:29.502Z,13.68
2018-09-12T23:02:00.538Z,13.25
2018-09-12T23:04:31.495Z,15.13
2018-09-12T23:07:02.534Z,13.80
2018-09-12T23:09:33.501Z,15.45
2018-09-12T23:12:04.543Z,14.33
2018-09-12T23:14:35.526Z,13.53
2018-09-12T23:17:06.727Z,11.80
2018-09-12T23:19:37.574Z,13.45
2018-09-12T23:22:08.550Z,12.65
2018-09-12T23:24:39.523Z,12.37
2018-09-12T23:27:10.529Z,14.10
2018-09-12T23:29:41.527Z,11.57
2018-09-12T23:32:12.516Z,12.60
2018-09-12T23:34:43.529Z,13.28
2018-09-12T23:37:14.554Z,13.40
2018-09-12T23:39:45.516Z,11.80
2018-09-12T23:42:16.517Z,13.65
2018-09-12T23:44:47.662Z,14.65
2018-09-12T23:47:18.590Z,13.98
2018-09-12T23:49:49.553Z,15.25
2018-09-12T23:52:20.522Z,13.75
2018-09-12T23:57:35.511Z,13.45
